createdAt,value
2023-05-21T00:00:17.836Z,17.57
2023-05-21T00:02:46.631Z,17.23
2023-05-21T00:05:17.198Z,16.07
2023-05-21T00:07:45.895Z,16.57
2023-05-21T00:10:14.430Z,17.53
2023-05-21T00:12:44.426Z,17.37
2023-05-21T00:15:14.516Z,16.17
2023-05-21T00:17:43.636Z,17.87
2023-05-21T00:20:13.163Z,17.67
2023-05-21T00:22:42.547Z,19.23
2023-05-21T00:25:12.898Z,21.50
2023-05-21T00:27:41.610Z,19.30
2023-05-21T00:30:10.436Z,16.60
2023-05-21T00:32:40.661Z,14.70
2023-05-21T00:35:10.153Z,17.30
2023-05-21T00:37:38.582Z,18.27
2023-05-21T00:40:08.945Z,17.20
2023-05-21T00:42:40.171Z,19.27
2023-05-21T00:45:09.631Z,16.50
2023-05-21T00:47:39.829Z,15.43
2023-05-21T00:50:09.061Z,16.73
2023-05-21T00:52:42.443Z,17.53
2023-05-21T00:55:11.410Z,17.40
2023-05-21T00:57:41.076Z,17.33
2023-05-21T01:00:10.952Z,20.67
2023-05-21T01:02:41.030Z,18.83
2023-05-21T01:05:09.838Z,16.97
2023-05-21T01:07:41.906Z,17.77
2023-05-21T01:10:12.022Z,16.00
2023-05-21T01:12:44.390Z,17.57
2023-05-21T01:15:13.535Z,18.27
2023-05-21T01:17:46.187Z,17.80
2023-05-21T01:20:18.367Z,18.13
2023-05-21T01:22:54.391Z,20.03
2023-05-21T01:25:23.342Z,15.30
2023-05-21T01:27:52.039Z,18.67
2023-05-21T01:30:22.241Z,19.30
2023-05-21T01:32:58.203Z,17.93
2023-05-21T01:35:31.344Z,19.73
2023-05-21T01:38:09.539Z,18.40
2023-05-21T01:40:46.847Z,23.13
2023-05-21T01:43:16.722Z,18.53
2023-05-21T01:45:47.060Z,23.57
2023-05-21T01:48:17.656Z,22.80
2023-05-21T01:50:47.496Z,19.63
2023-05-21T01:53:17.548Z,20.30
2023-05-21T01:55:47.261Z,20.60
2023-05-21T01:58:17.225Z,20.27
2023-05-21T02:00:46.801Z,19.23
2023-05-21T02:03:16.725Z,21.73
2023-05-21T02:05:45.156Z,21.57
2023-05-21T02:08:15.546Z,20.57
2023-05-21T02:10:45.187Z,23.47
2023-05-21T02:13:13.776Z,21.17
2023-05-21T02:15:42.421Z,23.27
2023-05-21T02:18:11.639Z,21.43
2023-05-21T02:20:39.821Z,18.93
2023-05-21T02:23:08.033Z,17.40
2023-05-21T02:25:36.773Z,23.30
2023-05-21T02:28:07.514Z,20.77
2023-05-21T02:30:36.001Z,21.10
2023-05-21T02:33:04.207Z,23.90
2023-05-21T02:35:32.483Z,20.33
2023-05-21T02:38:03.277Z,21.70
2023-05-21T02:40:32.982Z,22.47
2023-05-21T02:43:01.349Z,20.10
2023-05-21T02:45:31.630Z,20.30
2023-05-21T02:48:00.459Z,24.87
2023-05-21T02:50:28.793Z,22.93
2023-05-21T02:52:57.339Z,21.83
2023-05-21T02:55:25.894Z,20.53
2023-05-21T02:57:55.361Z,20.03
2023-05-21T03:00:23.754Z,21.10
2023-05-21T03:02:53.617Z,19.03
2023-05-21T03:05:22.243Z,21.67
2023-05-21T03:07:50.477Z,23.07
2023-05-21T03:10:18.759Z,20.43
2023-05-21T03:12:47.466Z,21.23
2023-05-21T03:15:17.379Z,19.67
2023-05-21T03:17:45.780Z,21.73
2023-05-21T03:20:17.322Z,21.03
2023-05-21T03:22:45.938Z,18.37
2023-05-21T03:25:14.548Z,21.13
2023-05-21T03:27:42.771Z,20.73
2023-05-21T03:30:12.083Z,22.20
2023-05-21T03:32:41.579Z,19.57
2023-05-21T03:35:10.300Z,21.40
2023-05-21T03:37:39.905Z,21.40
2023-05-21T03:40:10.880Z,23.83
2023-05-21T03:42:39.692Z,21.47
2023-05-21T03:45:08.741Z,21.70
2023-05-21T03:47:37.246Z,22.10
2023-05-21T03:50:06.813Z,21.27
2023-05-21T03:52:35.355Z,23.63
2023-05-21T03:55:05.865Z,22.73
2023-05-21T03:57:34.252Z,19.20
2023-05-21T04:00:02.756Z,20.53
2023-05-21T04:02:31.009Z,20.13
2023-05-21T04:04:59.198Z,19.43
2023-05-21T04:07:27.796Z,21.33
2023-05-21T04:09:56.177Z,21.10
2023-05-21T04:12:26.969Z,21.80
2023-05-21T04:14:55.012Z,23.13
2023-05-21T04:17:23.505Z,20.70
2023-05-21T04:19:52.414Z,22.60
2023-05-21T04:22:21.873Z,21.50
2023-05-21T04:24:50.305Z,24.50
2023-05-21T04:27:19.443Z,18.40
2023-05-21T04:29:50.788Z,19.80
2023-05-21T04:32:19.467Z,24.00
2023-05-21T04:34:47.661Z,21.10
2023-05-21T04:37:18.268Z,22.40
2023-05-21T04:39:47.084Z,19.87
2023-05-21T04:42:15.237Z,22.97
2023-05-21T04:44:44.694Z,21.27
2023-05-21T04:47:16.134Z,22.93
2023-05-21T04:49:44.542Z,22.20
2023-05-21T04:52:12.705Z,22.90
2023-05-21T04:54:42.152Z,19.70
2023-05-21T04:57:10.681Z,22.43
2023-05-21T04:59:39.644Z,21.10
2023-05-21T05:02:07.802Z,22.33
2023-05-21T05:04:37.709Z,23.70
2023-05-21T05:07:06.245Z,20.57
2023-05-21T05:09:34.579Z,20.97
2023-05-21T05:12:03.053Z,19.70
2023-05-21T05:14:31.308Z,24.77
2023-05-21T05:17:00.984Z,22.23
2023-05-21T05:19:29.707Z,21.13
2023-05-21T05:21:59.641Z,20.40
2023-05-21T05:24:27.866Z,20.87
2023-05-21T05:26:56.265Z,23.27
2023-05-21T05:29:24.482Z,23.47
2023-05-21T05:31:52.630Z,23.87
2023-05-21T05:34:22.350Z,21.70
2023-05-21T05:36:50.834Z,21.03
2023-05-21T05:39:21.127Z,22.80
2023-05-21T05:41:49.408Z,22.37
2023-05-21T05:44:17.863Z,22.17
2023-05-21T05:46:46.114Z,20.40
2023-05-21T05:49:15.118Z,19.93
2023-05-21T05:51:43.688Z,22.13
2023-05-21T05:54:11.972Z,27.00
2023-05-21T05:56:42.035Z,21.30
2023-05-21T05:59:10.417Z,21.37
2023-05-21T06:01:38.739Z,20.63
2023-05-21T06:04:06.979Z,22.33
2023-05-21T06:06:35.251Z,22.57
2023-05-21T06:09:03.623Z,21.03
2023-05-21T06:11:32.923Z,21.57
2023-05-21T06:14:02.786Z,19.53
2023-05-21T06:16:31.659Z,26.97
2023-05-21T06:19:00.521Z,22.57
2023-05-21T06:21:28.917Z,21.00
2023-05-21T06:23:57.066Z,21.27
2023-05-21T06:26:26.520Z,20.40
2023-05-21T06:28:55.125Z,22.30
2023-05-21T06:31:24.922Z,21.57
2023-05-21T06:33:53.449Z,30.37
2023-05-21T06:36:21.837Z,22.50
2023-05-21T06:38:50.052Z,26.17
2023-05-21T06:41:18.321Z,23.27
2023-05-21T06:43:46.621Z,25.23
2023-05-21T06:46:16.040Z,22.83
2023-05-21T06:48:46.447Z,21.57
2023-05-21T06:51:14.510Z,20.20
2023-05-21T06:53:43.621Z,23.13
2023-05-21T06:56:13.166Z,18.67
2023-05-21T06:58:42.951Z,19.30
2023-05-21T07:01:11.938Z,19.03
2023-05-21T07:03:40.517Z,19.87
2023-05-21T07:06:10.693Z,18.37
2023-05-21T07:08:38.907Z,18.30
2023-05-21T07:11:07.503Z,17.67
2023-05-21T07:13:36.998Z,21.70
2023-05-21T07:16:05.361Z,19.40
2023-05-21T07:18:33.469Z,19.80
2023-05-21T07:21:01.897Z,19.23
2023-05-21T07:23:31.823Z,20.60
2023-05-21T07:26:00.159Z,19.33
2023-05-21T07:28:28.300Z,18.23
2023-05-21T07:30:56.638Z,20.47
2023-05-21T07:33:25.287Z,17.37
2023-05-21T07:35:53.714Z,18.10
2023-05-21T07:38:21.841Z,17.87
2023-05-21T07:40:51.644Z,18.67
2023-05-21T07:43:22.815Z,21.63
2023-05-21T07:45:51.065Z,18.87
2023-05-21T07:48:21.722Z,16.55
2023-05-21T07:50:50.400Z,18.57
2023-05-21T07:53:18.541Z,17.23
2023-05-21T07:55:48.848Z,17.67
2023-05-21T07:58:22.510Z,18.52
2023-05-21T08:00:51.296Z,16.67
2023-05-21T08:03:20.229Z,16.53
2023-05-21T08:05:50.943Z,16.93
2023-05-21T08:08:22.255Z,17.63
2023-05-21T08:10:50.954Z,16.30
2023-05-21T08:13:21.054Z,14.75
2023-05-21T08:15:52.684Z,16.73
2023-05-21T08:18:24.073Z,17.03
2023-05-21T08:20:52.532Z,20.63
2023-05-21T08:23:21.297Z,16.48
2023-05-21T08:25:49.510Z,15.65
2023-05-21T08:28:17.761Z,35.05
2023-05-21T08:30:47.295Z,17.80
2023-05-21T08:33:15.749Z,15.65
2023-05-21T08:35:43.880Z,14.38
2023-05-21T08:38:12.263Z,16.00
2023-05-21T08:40:41.730Z,15.35
2023-05-21T08:43:13.944Z,16.33
2023-05-21T08:45:46.004Z,16.10
2023-05-21T08:48:18.157Z,15.73
2023-05-21T08:50:48.142Z,16.35
2023-05-21T08:53:27.490Z,14.55
2023-05-21T08:55:57.882Z,15.43
2023-05-21T08:58:26.192Z,15.00
2023-05-21T09:00:56.839Z,14.25
2023-05-21T09:03:27.862Z,13.43
2023-05-21T09:05:56.817Z,14.02
2023-05-21T09:08:31.332Z,13.65
2023-05-21T09:11:00.462Z,13.85
2023-05-21T09:13:31.939Z,14.45
2023-05-21T09:16:00.724Z,16.27
2023-05-21T09:18:30.873Z,15.77
2023-05-21T09:21:00.755Z,14.68
2023-05-21T09:23:30.834Z,13.60
2023-05-21T09:25:59.017Z,14.10
2023-05-21T09:28:27.553Z,14.48
2023-05-21T09:30:56.270Z,13.73
2023-05-21T09:33:30.909Z,14.07
2023-05-21T09:35:59.069Z,15.57
2023-05-21T09:38:27.621Z,14.48
2023-05-21T09:40:58.068Z,13.82
2023-05-21T09:43:26.907Z,13.95
2023-05-21T09:45:57.789Z,15.82
2023-05-21T09:48:37.054Z,14.20
2023-05-21T09:51:14.952Z,13.52
2023-05-21T09:53:50.169Z,14.05
2023-05-21T09:56:22.501Z,14.07
2023-05-21T09:58:54.788Z,13.75
2023-05-21T10:01:23.323Z,13.10
2023-05-21T10:03:57.596Z,12.95
2023-05-21T10:06:27.991Z,13.15
2023-05-21T10:08:59.982Z,12.73
2023-05-21T10:11:33.052Z,12.77
2023-05-21T10:14:06.084Z,13.27
2023-05-21T10:16:37.636Z,14.18
2023-05-21T10:19:11.141Z,12.57
2023-05-21T10:21:41.101Z,15.25
2023-05-21T10:24:10.848Z,13.02
2023-05-21T10:26:39.937Z,12.13
2023-05-21T10:29:09.601Z,12.70
2023-05-21T10:31:40.366Z,12.82
2023-05-21T10:34:11.811Z,12.13
2023-05-21T10:36:40.050Z,12.52
2023-05-21T10:39:09.877Z,12.13
2023-05-21T10:41:49.064Z,12.15
2023-05-21T10:44:25.312Z,11.63
2023-05-21T10:47:29.277Z,11.15
2023-05-21T10:50:17.970Z,11.02
2023-05-21T10:53:01.962Z,12.05
2023-05-21T10:55:48.546Z,11.85
2023-05-21T10:58:51.682Z,12.55
2023-05-21T11:01:20.504Z,13.25
2023-05-21T11:03:49.296Z,11.95
2023-05-21T11:06:27.655Z,12.73
2023-05-21T11:08:56.308Z,12.32
2023-05-21T11:11:45.181Z,11.25
2023-05-21T11:14:33.042Z,11.50
2023-05-21T11:17:02.331Z,11.10
2023-05-21T11:19:39.302Z,11.73
2023-05-21T11:22:24.518Z,11.05
2023-05-21T11:24:53.485Z,11.75
2023-05-21T11:27:33.684Z,12.65
2023-05-21T11:30:05.503Z,12.93
2023-05-21T11:32:33.826Z,10.75
2023-05-21T11:35:03.574Z,11.57
2023-05-21T11:37:35.009Z,11.38
2023-05-21T11:40:27.463Z,10.93
2023-05-21T11:42:56.981Z,11.77
2023-05-21T11:45:31.097Z,11.35
2023-05-21T11:47:59.749Z,10.85
2023-05-21T11:50:30.722Z,11.07
2023-05-21T11:53:01.529Z,11.60
2023-05-21T11:55:30.044Z,11.88
2023-05-21T11:58:01.103Z,10.60
2023-05-21T12:00:29.277Z,10.75
2023-05-21T12:02:58.993Z,10.85
2023-05-21T12:05:28.007Z,11.70
2023-05-21T12:07:56.928Z,11.45
2023-05-21T12:10:26.824Z,12.18
2023-05-21T12:12:56.978Z,12.15
2023-05-21T12:15:28.214Z,11.85
2023-05-21T12:17:58.384Z,12.23
2023-05-21T12:20:30.693Z,12.93
2023-05-21T12:23:00.876Z,10.98
2023-05-21T12:25:32.249Z,11.50
2023-05-21T12:28:01.585Z,11.70
2023-05-21T12:30:30.488Z,11.25
2023-05-21T12:33:02.416Z,11.27
2023-05-21T12:35:32.423Z,14.32
2023-05-21T12:38:02.729Z,12.32
2023-05-21T12:40:40.009Z,12.45
2023-05-21T12:43:08.701Z,18.50
2023-05-21T12:45:39.434Z,15.48
2023-05-21T12:48:08.453Z,13.20
2023-05-21T12:50:40.925Z,15.27
2023-05-21T12:53:11.620Z,11.68
2023-05-21T12:55:43.017Z,11.80
2023-05-21T12:58:17.967Z,17.65
2023-05-21T13:00:46.573Z,14.68
2023-05-21T13:03:14.738Z,12.95
2023-05-21T13:05:43.413Z,11.65
2023-05-21T13:08:14.275Z,11.98
2023-05-21T13:10:44.703Z,12.38
2023-05-21T13:13:13.122Z,11.90
2023-05-21T13:15:41.702Z,10.73
2023-05-21T13:18:10.550Z,11.40
2023-05-21T13:20:39.565Z,11.13
2023-05-21T13:23:10.480Z,10.55
2023-05-21T13:25:39.652Z,12.45
2023-05-21T13:28:10.651Z,12.93
2023-05-21T13:30:39.281Z,12.13
2023-05-21T13:33:07.912Z,12.05
2023-05-21T13:35:36.549Z,12.00
2023-05-21T13:38:04.972Z,11.88
2023-05-21T13:40:36.538Z,12.88
2023-05-21T13:43:06.556Z,12.13
2023-05-21T13:45:36.345Z,12.10
2023-05-21T13:48:05.285Z,11.35
2023-05-21T13:50:33.654Z,13.38
2023-05-21T13:53:02.416Z,12.07
2023-05-21T13:55:31.122Z,11.10
2023-05-21T13:57:59.397Z,14.88
2023-05-21T14:00:27.811Z,11.98
2023-05-21T14:02:58.066Z,11.20
2023-05-21T14:05:26.571Z,10.65
2023-05-21T14:07:55.802Z,10.90
2023-05-21T14:10:26.310Z,9.93
2023-05-21T14:13:01.453Z,7.95
2023-05-21T14:15:37.816Z,7.60
2023-05-21T14:18:12.313Z,7.65
2023-05-21T14:20:41.246Z,7.07
2023-05-21T14:23:11.807Z,9.18
2023-05-21T14:25:43.747Z,7.18
2023-05-21T14:28:14.195Z,6.97
2023-05-21T14:30:42.761Z,7.57
2023-05-21T14:33:13.599Z,7.35
2023-05-21T14:35:46.420Z,7.72
2023-05-21T14:38:16.127Z,8.60
2023-05-21T14:40:44.591Z,7.03
2023-05-21T14:43:13.082Z,7.43
2023-05-21T14:45:41.501Z,7.00
2023-05-21T14:48:14.321Z,9.27
2023-05-21T14:50:44.515Z,8.25
2023-05-21T14:53:14.369Z,8.43
2023-05-21T14:55:43.267Z,6.63
2023-05-21T14:58:11.996Z,7.03
2023-05-21T15:00:40.719Z,7.80
2023-05-21T15:03:09.212Z,9.15
2023-05-21T15:05:37.994Z,7.88
2023-05-21T15:08:09.706Z,8.38
2023-05-21T15:10:38.116Z,8.60
2023-05-21T15:13:06.609Z,7.60
2023-05-21T15:15:36.675Z,7.85
2023-05-21T15:18:05.406Z,8.18
2023-05-21T15:20:34.025Z,7.38
2023-05-21T15:25:35.761Z,8.05
2023-05-21T15:28:05.007Z,8.07
2023-05-21T15:30:33.370Z,7.78
2023-05-21T15:33:02.874Z,8.23
2023-05-21T15:35:31.549Z,8.80
2023-05-21T15:37:59.967Z,7.80
2023-05-21T15:40:28.273Z,8.10
2023-05-21T15:42:58.383Z,11.73
2023-05-21T15:45:26.582Z,9.82
2023-05-21T15:47:55.227Z,9.68
2023-05-21T15:50:23.514Z,8.35
2023-05-21T15:52:54.825Z,8.10
2023-05-21T15:55:23.353Z,8.57
2023-05-21T15:57:54.488Z,7.47
2023-05-21T16:00:24.652Z,7.55
2023-05-21T16:02:52.815Z,7.90
2023-05-21T16:05:21.111Z,8.20
2023-05-21T16:07:49.981Z,9.15
2023-05-21T16:10:18.501Z,9.50
2023-05-21T16:12:46.769Z,9.95
2023-05-21T16:15:15.828Z,9.75
2023-05-21T16:17:46.756Z,9.15
2023-05-21T16:20:16.352Z,9.23
2023-05-21T16:22:47.052Z,10.70
2023-05-21T16:25:15.397Z,9.30
2023-05-21T16:27:43.574Z,9.68
2023-05-21T16:30:14.233Z,8.65
2023-05-21T16:32:42.751Z,8.40
2023-05-21T16:35:12.448Z,10.07
2023-05-21T16:37:40.809Z,9.80
2023-05-21T16:40:10.357Z,9.50
2023-05-21T16:42:39.272Z,9.20
2023-05-21T16:45:08.608Z,9.85
2023-05-21T16:47:37.066Z,9.45
2023-05-21T16:50:06.484Z,8.50
2023-05-21T16:52:37.843Z,8.48
2023-05-21T16:55:06.876Z,8.15
2023-05-21T16:57:35.080Z,9.32
2023-05-21T17:00:05.115Z,8.57
2023-05-21T17:02:33.465Z,9.07
2023-05-21T17:05:01.693Z,9.93
2023-05-21T17:07:29.882Z,9.98
2023-05-21T17:10:00.008Z,11.15
2023-05-21T17:12:28.673Z,11.40
2023-05-21T17:14:57.287Z,14.07
2023-05-21T17:17:26.079Z,14.13
2023-05-21T17:19:54.771Z,12.27
2023-05-21T17:22:23.242Z,13.00
2023-05-21T17:24:54.660Z,13.20
2023-05-21T17:27:24.755Z,14.48
2023-05-21T17:29:53.374Z,14.77
2023-05-21T17:32:22.517Z,14.55
2023-05-21T17:34:50.749Z,14.68
2023-05-21T17:37:18.870Z,13.80
2023-05-21T17:39:47.257Z,14.27
2023-05-21T17:42:15.612Z,13.93
2023-05-21T17:44:45.819Z,13.57
2023-05-21T17:47:14.580Z,14.77
2023-05-21T17:49:43.209Z,14.43
2023-05-21T17:52:11.446Z,18.85
2023-05-21T17:54:39.827Z,14.05
2023-05-21T17:57:09.798Z,13.68
2023-05-21T17:59:42.189Z,13.93
2023-05-21T18:02:17.018Z,14.82
2023-05-21T18:04:46.841Z,16.60
2023-05-21T18:07:15.384Z,15.20
2023-05-21T18:09:44.334Z,13.40
2023-05-21T18:12:14.206Z,14.63
2023-05-21T18:14:42.377Z,13.45
2023-05-21T18:17:10.568Z,14.13
2023-05-21T18:19:40.676Z,14.00
2023-05-21T18:22:09.606Z,15.73
2023-05-21T18:24:38.491Z,13.82
2023-05-21T18:27:07.232Z,13.30
2023-05-21T18:29:35.438Z,15.52
2023-05-21T18:32:03.688Z,14.05
2023-05-21T18:34:32.179Z,13.75
2023-05-21T18:37:02.087Z,13.85
2023-05-21T18:39:30.556Z,15.90
2023-05-21T18:42:12.028Z,14.30
2023-05-21T18:44:40.993Z,12.77
2023-05-21T18:47:09.511Z,12.85
2023-05-21T18:49:37.900Z,14.63
2023-05-21T18:52:08.204Z,14.40
2023-05-21T18:54:36.934Z,14.57
2023-05-21T18:57:05.233Z,14.77
2023-05-21T18:59:33.911Z,13.52
2023-05-21T19:02:02.366Z,14.45
2023-05-21T19:04:31.127Z,13.93
2023-05-21T19:06:59.361Z,14.13
2023-05-21T19:09:29.235Z,14.00
2023-05-21T19:11:57.552Z,13.63
2023-05-21T19:14:25.965Z,14.23
2023-05-21T19:16:54.305Z,13.50
2023-05-21T19:19:22.981Z,15.15
2023-05-21T19:21:53.003Z,13.85
2023-05-21T19:24:21.376Z,15.52
2023-05-21T19:26:51.095Z,18.35
2023-05-21T19:29:19.248Z,15.93
2023-05-21T19:31:47.744Z,15.57
2023-05-21T19:34:16.538Z,15.77
2023-05-21T19:36:52.781Z,17.20
2023-05-21T19:39:22.169Z,15.23
2023-05-21T19:41:53.111Z,15.65
2023-05-21T19:44:21.565Z,16.30
2023-05-21T19:46:50.288Z,16.20
2023-05-21T19:49:20.113Z,15.27
2023-05-21T19:51:49.633Z,18.02
2023-05-21T19:54:18.736Z,15.32
2023-05-21T19:56:46.852Z,15.93
2023-05-21T19:59:16.437Z,15.48
2023-05-21T20:01:45.440Z,14.65
2023-05-21T20:04:14.431Z,15.52
2023-05-21T20:06:42.618Z,18.88
2023-05-21T20:09:13.429Z,17.73
2023-05-21T20:11:42.432Z,16.23
2023-05-21T20:14:11.040Z,14.80
2023-05-21T20:16:40.902Z,15.10
2023-05-21T20:19:10.888Z,15.02
2023-05-21T20:21:39.487Z,15.80
2023-05-21T20:24:09.211Z,15.23
2023-05-21T20:26:37.428Z,14.80
2023-05-21T20:29:06.657Z,16.52
2023-05-21T20:31:35.179Z,16.27
2023-05-21T20:34:09.054Z,16.67
2023-05-21T20:36:37.683Z,14.90
2023-05-21T20:39:06.461Z,17.70
2023-05-21T20:41:37.635Z,16.13
2023-05-21T20:44:07.167Z,15.57
2023-05-21T20:46:38.570Z,17.05
2023-05-21T20:49:10.067Z,15.27
2023-05-21T20:51:38.545Z,19.98
2023-05-21T20:54:07.136Z,15.60
2023-05-21T20:56:42.180Z,16.73
2023-05-21T20:59:12.328Z,17.63
2023-05-21T21:01:41.441Z,14.43
2023-05-21T21:04:11.570Z,14.75
2023-05-21T21:06:40.599Z,16.50
2023-05-21T21:09:09.055Z,15.50
2023-05-21T21:11:37.805Z,15.75
2023-05-21T21:14:06.307Z,14.57
2023-05-21T21:16:34.532Z,15.05
2023-05-21T21:19:03.090Z,17.02
2023-05-21T21:21:33.092Z,14.75
2023-05-21T21:24:01.541Z,13.63
2023-05-21T21:26:29.702Z,17.85
2023-05-21T21:28:59.682Z,14.02
2023-05-21T21:31:27.858Z,14.32
2023-05-21T21:33:56.282Z,14.18
2023-05-21T21:36:24.531Z,13.60
2023-05-21T21:38:54.578Z,13.70
2023-05-21T21:41:23.338Z,15.15
2023-05-21T21:43:52.541Z,14.10
2023-05-21T21:46:20.845Z,15.25
2023-05-21T21:48:49.305Z,14.02
2023-05-21T21:51:17.497Z,13.38
2023-05-21T21:53:45.645Z,13.13
2023-05-21T21:56:16.487Z,14.30
2023-05-21T21:58:46.934Z,14.18
2023-05-21T22:01:15.174Z,13.20
2023-05-21T22:03:43.470Z,14.23
2023-05-21T22:06:11.733Z,14.25
2023-05-21T22:08:42.769Z,12.60
2023-05-21T22:11:11.116Z,14.45
2023-05-21T22:13:42.162Z,13.15
2023-05-21T22:16:12.020Z,14.70
2023-05-21T22:18:42.209Z,13.32
2023-05-21T22:21:11.133Z,12.70
2023-05-21T22:23:39.757Z,14.32
2023-05-21T22:26:08.147Z,12.98
2023-05-21T22:28:36.326Z,13.18
2023-05-21T22:31:06.454Z,15.27
2023-05-21T22:33:34.912Z,12.63
2023-05-21T22:36:04.456Z,12.73
2023-05-21T22:38:32.720Z,14.00
2023-05-21T22:41:01.212Z,15.13
2023-05-21T22:43:29.469Z,14.00
2023-05-21T22:45:57.652Z,16.77
2023-05-21T22:48:30.818Z,13.43
2023-05-21T22:50:59.674Z,15.77
2023-05-21T22:53:28.076Z,13.50
2023-05-21T22:55:56.700Z,12.90
2023-05-21T22:58:25.017Z,15.02
2023-05-21T23:00:53.477Z,13.32
2023-05-21T23:03:21.707Z,13.15
2023-05-21T23:05:51.763Z,14.30
2023-05-21T23:08:21.378Z,13.25
2023-05-21T23:10:49.877Z,13.25
2023-05-21T23:13:18.145Z,11.63
2023-05-21T23:15:48.702Z,13.75
2023-05-21T23:18:17.463Z,14.02
2023-05-21T23:20:46.201Z,15.15
2023-05-21T23:23:16.077Z,15.95
2023-05-21T23:25:44.929Z,12.80
2023-05-21T23:28:13.123Z,14.10
2023-05-21T23:30:41.565Z,13.82
2023-05-21T23:33:10.017Z,15.13
2023-05-21T23:35:38.315Z,12.00
2023-05-21T23:38:06.628Z,13.45
2023-05-21T23:40:37.277Z,13.27
2023-05-21T23:43:06.171Z,11.90
2023-05-21T23:45:34.814Z,14.10
2023-05-21T23:48:03.043Z,12.95
2023-05-21T23:50:31.420Z,12.40
2023-05-21T23:53:00.028Z,13.63
2023-05-21T23:55:28.205Z,14.07
2023-05-21T23:57:57.736Z,15.97
